»·PEaware :: TPX637 KPHX-KLAS

TPX637 :: KPHX-KLAS

FLIGHT INFORMATION

Flight Status: Arrived
Operator: ATP Experience
More flights by this operator :: More flights under this callsign
Pilot: Dave P. (45)
Aircraft: BOEING 737-800
(B738)
More flights by this aircraft type
Origin: KPHX Phoenix Sky Harbor Intl
United States
Destination: KLAS McCarran Intl
United States
More flights between these airports :: More routes between these airports
Route: ZEPER1 SISIE IGM TYSSN5
File this flight plan on PilotEdge
Remarks: PBN / A1B1C1D1S1S2 DOF / 180703 REG / N738PM EET / KZLA0020 OPR / TPX PER / D RMK / TCAS SIMBRIEF
Altitude:
(Current/Filed)
28,000ft
Speed:
(Current/Filed)
471kts
Departed: 02-Jul-18 05:26 PM
Arrived: 02-Jul-18 06:09 PM
Distance/Time
Traveled:
221nm/0:43
Distance/Time
To Go:
Arrived

Flight Plot

Page will automatically refresh every two minutes.

Flight plan parsing failed; only flown route is shown


Map Options




Map Legend


Flown Route
Filed Route
Departure Airport
Arrival Airport
Navaid (VOR, NDB)
Fix

Horizontal Profiles

Position Reports

Time Latitude Longitude Heading Altitude Ground
Speed
02-Jul-18 17:12 33.434294 -111.999917 94 1143ft 0kts
02-Jul-18 17:13 33.434294 -111.999917 94 1143ft 0kts
02-Jul-18 17:14 33.434294 -111.999917 94 1143ft 0kts
02-Jul-18 17:15 33.434294 -111.999917 94 1143ft 0kts
02-Jul-18 17:16 33.434294 -111.999917 94 1143ft 0kts
02-Jul-18 17:17 33.434294 -111.999917 94 1143ft 0kts
02-Jul-18 17:18 33.434302 -112.000051 94 1143ft 2kts
02-Jul-18 17:19 33.434326 -112.000466 94 1143ft 0kts
02-Jul-18 17:20 33.434326 -112.000466 94 1143ft 0kts
02-Jul-18 17:21 33.434282 -112.000380 138 1143ft 3kts
02-Jul-18 17:22 33.433372 -112.000506 180 1143ft 0kts
02-Jul-18 17:23 33.432836 -111.999071 89 1143ft 19kts
02-Jul-18 17:24 33.432620 -111.993657 154 1143ft 9kts
02-Jul-18 17:25 33.431724 -111.993581 180 1143ft 7kts
02-Jul-18 17:26 33.431029 -112.000385 270 1143ft 87kts
02-Jul-18 17:27 33.431384 -112.049184 269 2446ft 166kts
02-Jul-18 17:28 33.433020 -112.112547 271 3838ft 233kts
02-Jul-18 17:29 33.487136 -112.164549 342 5930ft 289kts
02-Jul-18 17:30 33.566538 -112.189402 343 8683ft 301kts
02-Jul-18 17:31 33.649908 -112.215532 344 10978ft 328kts
02-Jul-18 17:32 33.747027 -112.245920 345 12365ft 380kts
02-Jul-18 17:33 33.850659 -112.278455 346 15046ft 389kts
02-Jul-18 17:34 33.956790 -112.311959 346 17624ft 399kts
02-Jul-18 17:35 34.059474 -112.365923 324 19887ft 415kts
02-Jul-18 17:36 34.149702 -112.456550 320 21945ft 427kts
02-Jul-18 17:37 34.241994 -112.550224 320 23754ft 438kts
02-Jul-18 17:38 34.335451 -112.644565 320 25399ft 447kts
02-Jul-18 17:39 34.431827 -112.742112 320 26937ft 455kts
02-Jul-18 17:40 34.528621 -112.840767 320 28078ft 455kts
02-Jul-18 17:41 34.623491 -112.941160 317 28064ft 452kts
02-Jul-18 17:42 34.716723 -113.043483 317 28078ft 452kts
02-Jul-18 17:43 34.810368 -113.145791 317 28066ft 452kts
02-Jul-18 17:44 34.903650 -113.248472 317 28046ft 452kts
02-Jul-18 17:45 34.991823 -113.357233 305 28024ft 452kts
02-Jul-18 17:46 35.054422 -113.487184 299 28003ft 437kts
02-Jul-18 17:47 35.113064 -113.614040 299 26567ft 421kts
02-Jul-18 17:48 35.170012 -113.736840 298 24572ft 411kts
02-Jul-18 17:49 35.225359 -113.857351 298 22607ft 401kts
02-Jul-18 17:50 35.292000 -113.963662 320 20661ft 393kts
02-Jul-18 17:51 35.378411 -114.043645 322 18735ft 386kts
02-Jul-18 17:53 35.463093 -114.122502 322 16876ft 377kts
02-Jul-18 17:54 35.546052 -114.199524 321 15039ft 371kts
02-Jul-18 17:55 35.627267 -114.275441 321 13303ft 363kts
02-Jul-18 17:56 35.704934 -114.348310 321 12351ft 336kts
02-Jul-18 17:57 35.782722 -114.403145 339 11714ft 316kts
02-Jul-18 17:58 35.865181 -114.440866 337 11154ft 316kts
02-Jul-18 17:59 35.946931 -114.479096 337 10595ft 312kts
02-Jul-18 18:00 36.021555 -114.515903 323 10073ft 265kts
02-Jul-18 18:01 36.050583 -114.591136 277 9312ft 238kts
02-Jul-18 18:02 36.063113 -114.668105 278 8568ft 216kts
02-Jul-18 18:03 36.073264 -114.737053 269 7980ft 199kts
02-Jul-18 18:04 36.073861 -114.807991 266 7125ft 206kts
02-Jul-18 18:05 36.073865 -114.877005 266 6058ft 198kts
02-Jul-18 18:06 36.073810 -114.944617 266 5016ft 188kts
02-Jul-18 18:07 36.073757 -115.007379 266 4045ft 180kts
02-Jul-18 18:08 36.073706 -115.066597 266 3141ft 162kts
02-Jul-18 18:09 36.073661 -115.120075 265 2302ft 155kts
02-Jul-18 18:10 36.074400 -115.144952 295 2189ft 8kts
02-Jul-18 18:11 36.075470 -115.146418 357 2189ft 0kts
02-Jul-18 18:12 36.077582 -115.146236 72 2189ft 9kts
02-Jul-18 18:13 36.077497 -115.141849 84 2189ft 10kts
02-Jul-18 18:14 36.078725 -115.139634 14 2189ft 9kts
02-Jul-18 18:15 36.080764 -115.138282 315 2189ft 3kts
02-Jul-18 18:16 36.080822 -115.138355 315 2189ft 0kts
02-Jul-18 18:17 36.080822 -115.138355 315 2189ft 0kts
02-Jul-18 18:18 36.080822 -115.138355 315 2189ft 0kts
02-Jul-18 18:19 36.080822 -115.138355 315 2189ft 0kts
02-Jul-18 18:20 36.080822 -115.138355 315 2189ft 0kts
02-Jul-18 18:21 36.080822 -115.138355 315 2189ft 0kts
02-Jul-18 18:22 36.080822 -115.138355 315 2189ft 0kts
02-Jul-18 18:23 36.080822 -115.138355 315 2189ft 0kts
02-Jul-18 18:24 36.080822 -115.138355 315 2189ft 0kts

Navigation Log

Ident Type
Flight plan parsing failed, navigation log unavailable